메인 페이지
METAR-TAF:

METAR-TAF

공항 :

암스테르담 스키폴 국제공항

암스테르담, 네덜란드

위도: 52-18N, 경도: 004-46E, 고도: -4m

현재 날씨관측

예보는 15분 전, 18:25시(UTC)에 발표되었습니다.
남남서9kt
온도 9°C
습도 71%
기압 1022 hPa
시정 10km 이상
1500m 미만 상공 구름 및 적란운 없음

METAR: EHAM 201825Z 20009KT CAVOK 09/04 Q1022 NOSIG

시각: 19:40 (18:40 UTC)

예보

예보는 1 시간 46분 전, 16:54시(UTC)에 발표되었습니다.
예보 대상 시간: 20일 18시부터 21일 24시까지 (UTC)
남서10kt
시정 10km 이상
1500m 미만 상공 구름 및 적란운 없음
확률 30%
21일 03시부터 21일 08시까지 (UTC)
시정: 7000m
확률 40% :
일시적
21일 08시부터 21일 18시까지 (UTC)
시정: 7000m
고도 800ft 상공 구름 보통
고도 1200ft 상공 구름 많음
약한이슬비, 비
전환 중
21일 11시부터 21일 14시까지 (UTC)
13kt
전환 중
21일 21시부터 21일 24시까지 (UTC)
남서5kt
시정: 4000m
박무

TAF: EHAM 201654Z 2018/2124 23010KT CAVOK PROB30 2103/2108 7000 PROB40 TEMPO 2108/2118 7000 -DZRA SCT008 BKN012 BECMG 2111/2114 26013KT BECMG 2121/2124 23005KT 4000 BR

4,000개 이상의 공항 관측 자료 및 예보 (METAR 및 TAF 보고).

지도상에서 검색 가능한 기상관측소가 노란 점과 빨간 점으로 표시되어 있습니다.

기상관측소 명을 보려면 표시 위로 마우스를 이동하세요.

날씨 관측과 예보를 보려면 클릭하세요.

지도 변경 : 확대하려면 엑스 표시가 있는 녹색 버튼, 축소하려면 빼기 표시가 있는 녹색 버튼, 다음 페이지의 지도를 보려면 녹색 화살표를 클릭하세요.


METAR-TAF: